Time;durP1;ratioP1;P1;durP2;ratioP2;P2;SDS_P1;SDS_P2;PMS_P1;PMS_P2;Temp;Humidity;BMP_temperature;BMP_pressure;BME280_temperature;BME280_humidity;BME280_pressure;Samples;Min_cycle;Max_cycle;Signal;HPM_P1;HPM_P2
2023/05/07 00:00:45;;;;;;;16.88;13.38;;;;;;;;;;4972525;28;20039;-70
2023/05/07 00:03:11;;;;;;;16.45;12.23;;;;;;;;;;4973414;28;20050;-69
2023/05/07 00:05:37;;;;;;;16.00;13.23;;;;;;;;;;4972478;28;20416;-69
2023/05/07 00:08:04;;;;;;;16.38;13.43;;;;;;;;;;4973989;28;20465;-73
2023/05/07 00:10:30;;;;;;;19.08;14.05;;;;;;;;;;4972592;28;20133;-71
2023/05/07 00:12:56;;;;;;;16.52;12.77;;;;;;;;;;4972615;28;20048;-69
2023/05/07 00:15:22;;;;;;;16.75;11.80;;;;;;;;;;4973837;28;20035;-69
2023/05/07 00:17:48;;;;;;;18.88;13.57;;;;;;;;;;4972545;28;20416;-69
2023/05/07 00:20:14;;;;;;;17.08;13.40;;;;;;;;;;4956234;28;20034;-69
2023/05/07 00:22:40;;;;;;;17.40;13.52;;;;;;;;;;4972643;28;20039;-70
2023/05/07 00:25:07;;;;;;;17.23;13.52;;;;;;;;;;4972548;28;20520;-69
2023/05/07 00:27:33;;;;;;;15.68;12.50;;;;;;;;;;4972323;28;20054;-72
2023/05/07 00:29:59;;;;;;;17.50;13.60;;;;;;;;;;4995984;23;20043;-70
2023/05/07 00:32:24;;;;;;;14.18;11.70;;;14.90;99.90;;;;;;4955970;28;20039;-69
2023/05/07 00:34:50;;;;;;;17.65;13.52;;;14.80;99.90;;;;;;4971714;28;20463;-71
2023/05/07 00:37:16;;;;;;;17.35;13.40;;;14.70;99.90;;;;;;4955302;28;20492;-71
2023/05/07 00:39:42;;;;;;;20.90;14.13;;;;;;;;;;4972844;28;20101;-70
2023/05/07 00:42:08;;;;;;;19.20;13.10;;;;;;;;;;4971867;28;20049;-71
2023/05/07 00:44:34;;;;;;;16.52;13.38;;;;;;;;;;4971595;28;20153;-71
2023/05/07 00:47:03;;;;;;;21.85;14.80;;;14.70;99.90;;;;;;4972697;28;20070;-72
2023/05/07 00:49:38;;;;;;;17.33;14.35;;;14.70;99.90;;;;;;4971435;28;20125;-70
2023/05/07 00:52:07;;;;;;;17.27;13.52;;;14.60;99.90;;;;;;4971620;28;20528;-72
2023/05/07 00:54:34;;;;;;;20.25;14.10;;;14.30;99.90;;;;;;4955384;28;20424;-71
2023/05/07 00:57:00;;;;;;;19.13;13.90;;;14.70;99.90;;;;;;4971487;28;20066;-70
2023/05/07 00:59:26;;;;;;;18.88;12.65;;;14.80;99.90;;;;;;4971537;28;20035;-67
2023/05/07 01:01:52;;;;;;;21.55;14.68;;;14.50;99.90;;;;;;4971409;28;20046;-70
2023/05/07 01:04:18;;;;;;;19.30;14.35;;;;;;;;;;4971733;28;20043;-70
2023/05/07 01:06:45;;;;;;;19.08;13.32;;;14.60;99.90;;;;;;4971425;28;20051;-70
2023/05/07 01:09:12;;;;;;;19.20;14.95;;;14.50;99.90;;;;;;4971311;28;20121;-70
2023/05/07 01:11:39;;;;;;;17.67;13.90;;;14.70;99.90;;;;;;4971196;28;20042;-71
2023/05/07 01:14:05;;;;;;;22.52;15.50;;;14.50;99.90;;;;;;4971400;28;20093;-70
2023/05/07 01:16:31;;;;;;;20.58;14.25;;;14.50;99.90;;;;;;4955107;28;20046;-70
2023/05/07 01:18:57;;;;;;;22.98;14.95;;;;;;;;;;4971362;28;20042;-69
2023/05/07 01:21:26;;;;;;;21.70;16.05;;;14.50;99.90;;;;;;4971019;28;20035;-70
2023/05/07 01:23:54;;;;;;;21.50;14.27;;;14.40;99.90;;;;;;4971329;28;20122;-71
2023/05/07 01:26:21;;;;;;;18.42;14.90;;;14.40;99.90;;;;;;4971575;28;20393;-70
2023/05/07 01:28:47;;;;;;;20.23;15.35;;;14.50;99.90;;;;;;4971339;28;20035;-70
2023/05/07 01:31:14;;;;;;;21.38;15.93;;;14.40;99.90;;;;;;4971022;28;20416;-70
2023/05/07 01:33:41;;;;;;;16.98;13.85;;;14.20;99.90;;;;;;4971209;28;20046;-71
2023/05/07 01:36:08;;;;;;;23.85;16.42;;;14.30;99.90;;;;;;4954957;28;20055;-70
2023/05/07 01:38:35;;;;;;;21.20;15.23;;;14.50;99.90;;;;;;4971010;28;20079;-71
2023/05/07 01:41:01;;;;;;;25.52;16.73;;;14.40;99.90;;;;;;4970849;28;20039;-70
2023/05/07 01:43:29;;;;;;;22.88;17.27;;;14.50;99.90;;;;;;4971327;28;20081;-71
2023/05/07 01:45:55;;;;;;;23.95;16.58;;;;;;;;;;4970939;28;20090;-71
2023/05/07 01:48:21;;;;;;;24.67;17.55;;;;;;;;;;4971059;28;20047;-71
2023/05/07 01:50:48;;;;;;;23.65;17.38;;;14.60;99.90;;;;;;4970673;28;20101;-71
2023/05/07 01:53:14;;;;;;;22.27;17.23;;;;;;;;;;4970984;28;20488;-70
2023/05/07 01:55:40;;;;;;;23.23;17.20;;;;;;;;;;4971122;28;20050;-71
2023/05/07 01:58:06;;;;;;;31.33;20.30;;;;;;;;;;4970909;28;20499;-71
2023/05/07 02:00:32;;;;;;;24.90;17.85;;;;;;;;;;4972122;28;20121;-72
2023/05/07 02:02:58;;;;;;;23.80;18.40;;;;;;;;;;4975310;28;20083;-71
2023/05/07 02:05:24;;;;;;;28.10;19.38;;;;;;;;;;4974456;28;20077;-71
2023/05/07 02:07:50;;;;;;;27.05;19.50;;;;;;;;;;4974495;28;20062;-71
2023/05/07 02:10:16;;;;;;;29.33;20.08;;;;;;;;;;4974168;28;20043;-70
2023/05/07 02:12:42;;;;;;;24.33;19.30;;;;;;;;;;4974668;28;20185;-70
2023/05/07 02:15:08;;;;;;;27.85;18.27;;;14.10;99.90;;;;;;4974644;28;20058;-70
2023/05/07 02:17:35;;;;;;;25.13;19.25;;;;;;;;;;4974097;28;20046;-70
2023/05/07 02:20:01;;;;;;;26.88;19.98;;;14.20;99.90;;;;;;4973880;28;20043;-70
2023/05/07 02:22:26;;;;;;;26.27;18.98;;;14.10;99.90;;;;;;4958234;28;20046;-70
2023/05/07 02:24:52;;;;;;;29.40;19.05;;;14.00;99.90;;;;;;4974155;28;20537;-70
2023/05/07 02:27:17;;;;;;;28.65;21.33;;;14.00;99.90;;;;;;4974181;28;20047;-70
2023/05/07 02:29:43;;;;;;;29.83;21.15;;;;;;;;;;4973702;28;20081;-71
2023/05/07 02:32:09;;;;;;;25.50;19.73;;;;;;;;;;4974131;28;20504;-73
2023/05/07 02:34:35;;;;;;;25.17;19.35;;;;;;;;;;4974103;28;20055;-72
2023/05/07 02:37:01;;;;;;;27.60;19.45;;;;;;;;;;4973787;28;20050;-70
2023/05/07 02:39:27;;;;;;;28.35;19.90;;;13.90;99.90;;;;;;4973584;28;20043;-69
2023/05/07 02:41:52;;;;;;;28.17;20.55;;;13.90;99.90;;;;;;4973822;28;20047;-70
2023/05/07 02:44:18;;;;;;;28.35;21.17;;;;;;;;;;4973628;28;20041;-71
2023/05/07 02:46:44;;;;;;;28.83;21.50;;;;;;;;;;4973533;28;20039;-70
2023/05/07 02:49:10;;;;;;;26.38;20.27;;;;;;;;;;4973547;28;20046;-70
2023/05/07 02:51:36;;;;;;;26.80;21.77;;;;;;;;;;4973194;28;20035;-72
2023/05/07 02:54:02;;;;;;;26.13;21.00;;;;;;;;;;4973504;28;20527;-72
2023/05/07 02:56:28;;;;;;;29.63;20.73;;;13.80;99.90;;;;;;4973347;28;20042;-70
2023/05/07 02:58:54;;;;;;;27.02;20.95;;;13.50;99.90;;;;;;4973353;28;20046;-70
2023/05/07 03:01:20;;;;;;;30.50;22.10;;;;;;;;;;4973059;28;20035;-70
2023/05/07 03:03:46;;;;;;;28.48;20.75;;;;;;;;;;4973549;28;20047;-70
2023/05/07 03:06:12;;;;;;;29.80;21.52;;;13.70;99.90;;;;;;4973217;28;20050;-70
2023/05/07 03:08:38;;;;;;;26.35;20.10;;;;;;;;;;4957132;28;20050;-71
2023/05/07 03:11:04;;;;;;;26.65;20.63;;;;;;;;;;4972985;28;20043;-71
2023/05/07 03:13:30;;;;;;;28.92;22.48;;;;;;;;;;4972706;28;20046;-71
2023/05/07 03:15:55;;;;;;;31.17;22.73;;;13.60;99.90;;;;;;4973653;28;20046;-70
2023/05/07 03:18:21;;;;;;;27.48;21.55;;;13.70;99.90;;;;;;4972870;28;20113;-70
2023/05/07 03:20:48;;;;;;;29.15;21.02;;;13.70;99.90;;;;;;4972781;28;20039;-70
2023/05/07 03:23:14;;;;;;;30.65;22.02;;;;;;;;;;4974354;28;20066;-70
2023/05/07 03:25:39;;;;;;;28.20;22.10;;;13.40;99.90;;;;;;4974224;28;20113;-70
2023/05/07 03:28:05;;;;;;;29.63;21.83;;;13.70;99.90;;;;;;4972827;28;20039;-70
2023/05/07 03:30:31;;;;;;;30.58;21.02;;;13.60;99.90;;;;;;4972678;28;20038;-70
2023/05/07 03:32:57;;;;;;;33.22;22.90;;;;;;;;;;4972641;28;20043;-71
2023/05/07 03:35:23;;;;;;;34.40;23.80;;;;;;;;;;4972774;28;20046;-71
2023/05/07 03:37:49;;;;;;;29.00;22.10;;;;;;;;;;4972753;28;20086;-72
2023/05/07 03:40:15;;;;;;;40.22;25.48;;;;;;;;;;4972520;28;20134;-72
2023/05/07 03:42:41;;;;;;;31.52;22.85;;;;;;;;;;4972549;28;20038;-70
2023/05/07 03:45:07;;;;;;;29.73;21.92;;;13.60;99.90;;;;;;4972449;28;20108;-70
2023/05/07 03:47:33;;;;;;;34.25;24.70;;;;;;;;;;4972500;28;20050;-70
2023/05/07 03:49:59;;;;;;;35.45;23.90;;;;;;;;;;4972190;28;20049;-70
2023/05/07 03:52:25;;;;;;;33.85;22.52;;;13.30;99.90;;;;;;4972467;28;20053;-71
2023/05/07 03:54:52;;;;;;;32.20;24.55;;;13.40;99.90;;;;;;4972545;28;20070;-71
2023/05/07 03:57:18;;;;;;;33.47;24.20;;;13.30;99.90;;;;;;4972172;28;20042;-70
2023/05/07 03:59:44;;;;;;;33.35;23.05;;;;;;;;;;4956095;28;20053;-72
2023/05/07 04:02:09;;;;;;;34.97;25.15;;;13.20;99.90;;;;;;4972277;28;20130;-70
2023/05/07 04:04:35;;;;;;;32.40;23.38;;;13.20;99.90;;;;;;4956164;28;20141;-70
2023/05/07 04:07:01;;;;;;;31.20;23.25;;;;;;;;;;4972111;28;20053;-70
2023/05/07 04:09:26;;;;;;;32.25;24.27;;;13.40;99.90;;;;;;4971856;28;20047;-70
2023/05/07 04:11:52;;;;;;;37.00;27.35;;;;;;;;;;4955831;28;20043;-71
2023/05/07 04:14:18;;;;;;;39.50;27.30;;;;;;;;;;4972180;28;20118;-72
2023/05/07 04:16:44;;;;;;;31.38;24.20;;;13.20;99.90;;;;;;4971849;28;20100;-70
2023/05/07 04:19:10;;;;;;;39.92;27.85;;;;;;;;;;4972055;28;20035;-70
2023/05/07 04:21:36;;;;;;;39.08;28.10;;;;;;;;;;4971932;28;20039;-70
2023/05/07 04:24:03;;;;;;;33.20;24.10;;;13.30;99.90;;;;;;4971585;28;20511;-71
2023/05/07 04:26:30;;;;;;;43.17;28.08;;;;;;;;;;4971855;28;20042;-72
2023/05/07 04:28:56;;;;;;;38.42;27.27;;;13.10;99.90;;;;;;4971764;28;20050;-70
2023/05/07 04:31:22;;;;;;;38.70;27.23;;;13.20;99.90;;;;;;4971436;28;20047;-70
2023/05/07 04:33:48;;;;;;;40.05;28.50;;;;;;;;;;4971805;28;20073;-70
2023/05/07 04:36:14;;;;;;;41.42;28.42;;;;;;;;;;4971771;28;20043;-72
2023/05/07 04:38:40;;;;;;;42.90;29.35;;;;;;;;;;4971508;28;20050;-71
2023/05/07 04:41:06;;;;;;;39.38;28.25;;;;;;;;;;4971391;28;20046;-70
2023/05/07 04:43:33;;;;;;;41.88;27.95;;;;;;;;;;4971523;28;20042;-70
2023/05/07 04:45:58;;;;;;;46.88;28.00;;;13.10;99.90;;;;;;4955730;28;20043;-70
2023/05/07 04:48:24;;;;;;;46.30;28.85;;;;;;;;;;4971531;28;20081;-71
2023/05/07 04:50:50;;;;;;;41.47;26.52;;;13.10;99.90;;;;;;4971348;28;20042;-71
2023/05/07 04:53:17;;;;;;;44.67;28.63;;;13.10;99.90;;;;;;4969471;28;20050;-72
2023/05/07 04:55:43;;;;;;;42.78;29.85;;;13.30;99.90;;;;;;4964557;28;20049;-70
2023/05/07 04:58:10;;;;;;;41.28;27.17;;;;;;;;;;4970856;28;20448;-70
2023/05/07 05:00:35;;;;;;;43.65;28.05;;;13.20;99.90;;;;;;4981740;28;20042;-70
2023/05/07 05:03:01;;;;;;;46.70;30.13;;;13.00;99.90;;;;;;4971042;28;20039;-70
2023/05/07 05:05:27;;;;;;;44.20;30.02;;;;;;;;;;4976465;28;20158;-71
2023/05/07 05:07:53;;;;;;;48.08;29.92;;;;;;;;;;4971216;28;20058;-71
2023/05/07 05:10:19;;;;;;;46.47;30.70;;;;;;;;;;4955158;28;20050;-70
2023/05/07 05:12:45;;;;;;;46.38;30.23;;;;;;;;;;4971412;28;20047;-70
2023/05/07 05:15:12;;;;;;;40.90;28.10;;;13.30;99.90;;;;;;4971148;28;20489;-70
2023/05/07 05:17:38;;;;;;;43.60;29.02;;;;;;;;;;4971218;28;20524;-70
2023/05/07 05:20:05;;;;;;;43.60;29.50;;;13.10;99.90;;;;;;4971072;28;20046;-70
2023/05/07 05:22:31;;;;;;;41.75;28.95;;;13.10;99.90;;;;;;4971330;28;20042;-70
2023/05/07 05:24:57;;;;;;;38.20;27.15;;;13.20;99.90;;;;;;4970986;28;20038;-70
2023/05/07 05:27:24;;;;;;;46.65;28.85;;;13.00;99.90;;;;;;4971058;28;20122;-70
2023/05/07 05:29:49;;;;;;;44.42;28.27;;;13.20;99.90;;;;;;4970998;28;20043;-70
2023/05/07 05:32:15;;;;;;;43.22;26.55;;;13.30;99.90;;;;;;4971190;28;20039;-70
2023/05/07 05:34:40;;;;;;;41.28;27.17;;;13.40;99.90;;;;;;4971369;28;20061;-70
2023/05/07 05:37:06;;;;;;;41.60;29.25;;;;;;;;;;4958345;28;20068;-70
2023/05/07 05:39:32;;;;;;;44.03;28.55;;;13.20;99.90;;;;;;4958739;28;20046;-70
2023/05/07 05:41:57;;;;;;;43.60;29.65;;;13.30;99.90;;;;;;4975040;28;20081;-70
2023/05/07 05:44:23;;;;;;;46.28;28.55;;;13.30;99.90;;;;;;4974678;28;20503;-71
2023/05/07 05:46:49;;;;;;;36.90;27.20;;;;;;;;;;4974813;28;20093;-70
2023/05/07 05:49:15;;;;;;;41.50;27.85;;;;;;;;;;4960813;28;20500;-71
2023/05/07 05:51:41;;;;;;;43.55;28.02;;;;;;;;;;4974929;28;20415;-70
2023/05/07 05:54:07;;;;;;;43.67;27.80;;;;;;;;;;4993858;28;20152;-71
2023/05/07 05:56:34;;;;;;;38.63;26.88;;;;;;;;;;4994045;28;20174;-72
2023/05/07 05:59:00;;;;;;;40.47;25.88;;;;;;;;;;4976370;28;20035;-71
2023/05/07 06:01:26;;;;;;;38.45;27.27;;;;;;;;;;4974492;28;20046;-71
2023/05/07 06:03:52;;;;;;;39.65;27.58;;;;;;;;;;4974445;28;20039;-70
2023/05/07 06:06:18;;;;;;;38.05;26.08;;;;;;;;;;4974610;28;20163;-70
2023/05/07 06:08:44;;;;;;;37.05;26.58;;;;;;;;;;4982643;28;20412;-70
2023/05/07 06:11:10;;;;;;;38.95;25.92;;;;;;;;;;4991360;28;20038;-71
2023/05/07 06:13:36;;;;;;;38.42;25.45;;;;;;;;;;4994872;28;20045;-70
2023/05/07 06:16:02;;;;;;;36.42;25.48;;;;;;;;;;4987477;28;20041;-70
2023/05/07 06:18:28;;;;;;;38.00;25.73;;;13.60;99.90;;;;;;4958420;28;20046;-71
2023/05/07 06:20:54;;;;;;;38.70;25.17;;;;;;;;;;4970319;28;20042;-70
2023/05/07 06:23:20;;;;;;;33.95;25.23;;;;;;;;;;4947072;28;20097;-69
2023/05/07 06:25:50;;;;;;;33.03;24.77;;;13.60;99.90;;;;;;4953850;28;20424;-68
2023/05/07 06:28:16;;;;;;;35.47;24.52;;;;;;;;;;4950283;28;20046;-70
2023/05/07 06:30:42;;;;;;;35.45;26.13;;;;;;;;;;4986864;23;20055;-68
2023/05/07 06:33:08;;;;;;;34.47;25.27;;;;;;;;;;4971751;28;20400;-68
2023/05/07 06:35:34;;;;;;;34.78;25.00;;;;;;;;;;4972015;28;20047;-68
2023/05/07 06:38:01;;;;;;;32.40;23.52;;;;;;;;;;4976861;28;20046;-67
2023/05/07 06:40:27;;;;;;;34.97;23.77;;;13.70;99.90;;;;;;4970680;28;20074;-69
2023/05/07 06:42:52;;;;;;;34.58;24.08;;;13.90;99.90;;;;;;4971428;28;20026;-69
2023/05/07 06:45:19;;;;;;;36.42;23.98;;;13.90;99.90;;;;;;4969857;28;20463;-68
2023/05/07 06:47:45;;;;;;;33.97;23.80;;;;;;;;;;4969961;28;20047;-68
2023/05/07 06:50:11;;;;;;;33.22;23.23;;;14.00;99.90;;;;;;4969752;28;20047;-69
2023/05/07 06:52:36;;;;;;;33.03;23.95;;;13.90;99.90;;;;;;4951802;28;20031;-69
2023/05/07 06:55:02;;;;;;;32.90;23.27;;;14.20;99.90;;;;;;4976806;28;20470;-68
2023/05/07 06:57:27;;;;;;;32.80;22.80;;;14.10;99.90;;;;;;4971036;28;20038;-69
2023/05/07 06:59:53;;;;;;;32.95;24.02;;;;;;;;;;4973433;28;20038;-68
2023/05/07 07:02:19;;;;;;;31.40;23.25;;;14.30;99.90;;;;;;4973167;28;20042;-68
2023/05/07 07:04:45;;;;;;;29.70;22.58;;;;;;;;;;4971569;28;20042;-68
2023/05/07 07:07:11;;;;;;;31.25;23.02;;;;;;;;;;4972077;28;20038;-68
2023/05/07 07:09:37;;;;;;;32.08;22.67;;;;;;;;;;4956625;28;20397;-70
2023/05/07 07:12:03;;;;;;;32.53;23.08;;;;;;;;;;4974231;28;20047;-68
2023/05/07 07:14:30;;;;;;;32.20;23.27;;;;;;;;;;4972341;28;20034;-69
2023/05/07 07:16:56;;;;;;;29.42;21.42;;;;;;;;;;4955456;28;20047;-69
2023/05/07 07:19:22;;;;;;;29.45;21.80;;;;;;;;;;4972794;28;20035;-69
2023/05/07 07:21:48;;;;;;;30.20;21.13;;;;;;;;;;4972718;28;20074;-69
2023/05/07 07:24:18;;;;;;;30.27;21.85;;;14.00;99.90;;;;;;4972991;28;20039;-69
2023/05/07 07:26:44;;;;;;;31.13;22.90;;;14.00;99.90;;;;;;4972838;28;20125;-68
2023/05/07 07:29:10;;;;;;;28.35;21.02;;;14.20;99.90;;;;;;4973086;28;20134;-69
2023/05/07 07:31:35;;;;;;;30.83;21.75;;;14.30;99.90;;;;;;4972454;28;20043;-69
2023/05/07 07:34:01;;;;;;;28.15;20.80;;;14.30;99.90;;;;;;4972787;28;20038;-69
2023/05/07 07:36:26;;;;;;;30.27;23.08;;;14.30;99.90;;;;;;4972650;28;20126;-69
2023/05/07 07:38:53;;;;;;;26.38;20.60;;;14.50;99.90;;;;;;4972505;28;20547;-69
2023/05/07 07:41:19;;;;;;;29.13;21.77;;;14.50;99.90;;;;;;4972406;28;20042;-69
2023/05/07 07:43:46;;;;;;;31.63;22.38;;;14.70;99.90;;;;;;4972611;28;20031;-69
2023/05/07 07:46:12;;;;;;;28.02;21.40;;;14.60;99.90;;;;;;4972493;28;20043;-69
2023/05/07 07:48:37;;;;;;;29.23;21.05;;;14.80;99.90;;;;;;4972456;28;20043;-69
2023/05/07 07:51:03;;;;;;;30.00;21.92;;;14.80;99.90;;;;;;4972229;28;20043;-69
2023/05/07 07:53:30;;;;;;;26.65;21.35;;;;;;;;;;4972566;28;20109;-69
2023/05/07 07:55:56;;;;;;;28.05;21.52;;;;;;;;;;4972542;28;20420;-69
2023/05/07 07:58:22;;;;;;;28.58;20.70;;;15.10;99.90;;;;;;4971617;28;20043;-69
2023/05/07 08:00:47;;;;;;;27.75;21.42;;;15.00;99.90;;;;;;4972025;28;20043;-69
2023/05/07 08:03:16;;;;;;;30.75;22.52;;;;;;;;;;4972507;28;20516;-69
2023/05/07 08:05:42;;;;;;;27.13;21.02;;;;;;;;;;4972324;28;20065;-69
2023/05/07 08:08:08;;;;;;;29.83;21.33;;;;;;;;;;4973386;28;20049;-68
2023/05/07 08:10:34;;;;;;;28.17;21.52;;;;;;;;;;4971865;28;20519;-69
2023/05/07 08:13:00;;;;;;;29.00;23.08;;;15.40;99.90;;;;;;4973352;28;20460;-68
2023/05/07 08:15:26;;;;;;;30.02;21.55;;;;;;;;;;4971959;28;20039;-68
2023/05/07 08:17:52;;;;;;;30.63;21.67;;;;;;;;;;4971887;28;20508;-68
2023/05/07 08:20:18;;;;;;;31.42;22.08;;;15.40;99.90;;;;;;4971687;28;20069;-69
2023/05/07 08:22:43;;;;;;;28.92;20.73;;;15.40;99.90;;;;;;4971918;28;20476;-69
2023/05/07 08:25:10;;;;;;;29.40;22.48;;;;;;;;;;4955964;28;20039;-68
2023/05/07 08:27:35;;;;;;;28.10;21.35;;;15.60;99.90;;;;;;4972299;28;20142;-69
2023/05/07 08:30:01;;;;;;;28.38;20.92;;;15.70;99.90;;;;;;4971530;28;20528;-68
2023/05/07 08:32:27;;;;;;;30.35;22.55;;;;;;;;;;4972039;28;20089;-69
2023/05/07 08:34:53;;;;;;;30.23;22.00;;;;;;;;;;4971582;28;20035;-68
2023/05/07 08:37:19;;;;;;;28.88;20.83;;;;;;;;;;4971801;28;20452;-68
2023/05/07 08:39:46;;;;;;;29.52;22.15;;;;;;;;;;4972724;28;20828;-68
2023/05/07 08:42:16;;;;;;;27.48;20.40;;;16.10;99.90;;;;;;4971564;28;20039;-68
2023/05/07 08:44:46;;;;;;;27.52;21.02;;;16.00;99.90;;;;;;4971861;28;20058;-69
2023/05/07 08:47:12;;;;;;;27.83;20.45;;;16.20;99.90;;;;;;4971606;28;20583;-68
2023/05/07 08:49:38;;;;;;;25.73;20.05;;;16.30;99.90;;;;;;4971283;28;20126;-68
2023/05/07 08:52:04;;;;;;;34.08;22.13;;;;;;;;;;4971495;28;20097;-68
2023/05/07 08:54:31;;;;;;;31.58;21.92;;;16.40;99.90;;;;;;4971622;28;20066;-69
2023/05/07 08:56:56;;;;;;;26.95;20.75;;;16.10;99.90;;;;;;4971661;28;20523;-68
2023/05/07 08:59:22;;;;;;;27.33;21.40;;;;;;;;;;4972855;28;20070;-68
2023/05/07 09:01:48;;;;;;;35.85;21.67;;;;;;;;;;4971497;28;20034;-68
2023/05/07 09:04:15;;;;;;;31.70;21.80;;;;;;;;;;4971447;28;20105;-69
2023/05/07 09:06:41;;;;;;;27.25;21.23;;;16.40;99.90;;;;;;4971513;28;20108;-68
2023/05/07 09:09:07;;;;;;;31.08;22.00;;;16.70;99.90;;;;;;4971837;28;20089;-68
2023/05/07 09:11:33;;;;;;;29.13;22.10;;;;;;;;;;4975083;28;20034;-68
2023/05/07 09:14:01;;;;;;;28.55;21.00;;;;;;;;;;4975355;28;20050;-68
2023/05/07 09:16:30;;;;;;;27.40;20.50;;;16.70;99.90;;;;;;4975531;28;20047;-68
2023/05/07 09:18:58;;;;;;;28.00;20.98;;;16.70;99.90;;;;;;4975187;28;20043;-68
2023/05/07 09:21:24;;;;;;;29.55;21.00;;;16.80;99.90;;;;;;4974965;28;20467;-68
2023/05/07 09:23:54;;;;;;;29.80;22.48;;;17.20;99.90;;;;;;4975369;28;20045;-68
2023/05/07 09:26:24;;;;;;;32.88;21.65;;;16.90;99.90;;;;;;4975132;28;20038;-68
2023/05/07 09:28:51;;;;;;;32.53;22.20;;;17.10;99.90;;;;;;4958988;28;20496;-68
2023/05/07 09:31:16;;;;;;;26.33;20.95;;;17.00;99.90;;;;;;4974586;28;20049;-68
2023/05/07 09:33:42;;;;;;;27.73;21.38;;;17.20;99.90;;;;;;4975039;28;20034;-68
2023/05/07 09:36:09;;;;;;;27.08;21.05;;;17.20;99.90;;;;;;4974805;28;20039;-68
2023/05/07 09:38:36;;;;;;;27.83;20.33;;;17.10;99.90;;;;;;4958762;28;20151;-68
2023/05/07 09:41:11;;;;;;;26.88;21.08;;;16.90;99.90;;;;;;4974632;28;20047;-68
2023/05/07 09:43:39;;;;;;;29.20;21.33;;;17.00;99.90;;;;;;4974664;28;20122;-68
2023/05/07 09:46:16;;;;;;;28.85;21.67;;;16.80;99.90;;;;;;4974967;28;20392;-68
2023/05/07 09:48:44;;;;;;;28.75;21.85;;;17.10;99.90;;;;;;4974628;28;20073;-68
2023/05/07 09:51:25;;;;;;;30.98;22.60;;;17.60;99.90;;;;;;4975618;28;20587;-68
2023/05/07 09:53:52;;;;;;;29.73;21.70;;;17.60;99.90;;;;;;4975908;28;20500;-68
2023/05/07 09:56:19;;;;;;;26.17;21.17;;;17.70;99.90;;;;;;4974417;28;20031;-68
2023/05/07 09:58:46;;;;;;;25.55;19.52;;;17.70;99.90;;;;;;4974389;28;20047;-68
2023/05/07 10:01:12;;;;;;;26.05;20.80;;;17.60;99.90;;;;;;4974451;28;20085;-68
2023/05/07 10:03:40;;;;;;;30.88;20.38;;;17.70;99.90;;;;;;4958271;28;20122;-68
2023/05/07 10:06:08;;;;;;;27.20;20.88;;;17.50;99.90;;;;;;4974649;28;20382;-69
2023/05/07 10:08:35;;;;;;;29.17;21.92;;;17.60;99.90;;;;;;4958536;28;20054;-69
2023/05/07 10:11:01;;;;;;;25.40;19.42;;;17.50;99.90;;;;;;4975620;28;20054;-69
2023/05/07 10:13:27;;;;;;;27.23;20.23;;;17.70;99.90;;;;;;4974689;28;20134;-69
2023/05/07 10:15:53;;;;;;;31.02;21.90;;;17.80;99.90;;;;;;4975542;28;20074;-69
2023/05/07 10:18:23;;;;;;;27.02;20.45;;;17.90;99.90;;;;;;4974122;28;20109;-69
2023/05/07 10:20:51;;;;;;;30.33;22.35;;;17.80;99.90;;;;;;4973616;28;20382;-69
2023/05/07 10:23:24;;;;;;;28.92;20.98;;;17.80;99.90;;;;;;4974244;28;20409;-69
2023/05/07 10:25:50;;;;;;;25.58;21.35;;;18.00;99.90;;;;;;4974066;28;20129;-69
2023/05/07 10:28:18;;;;;;;29.73;21.85;;;18.00;99.90;;;;;;4973936;28;20078;-69
2023/05/07 10:31:00;;;;;;;28.23;20.80;;;18.30;99.90;;;;;;4973580;28;20039;-69
2023/05/07 10:33:28;;;;;;;29.95;21.45;;;18.30;99.90;;;;;;4957818;28;20463;-69
2023/05/07 10:35:59;;;;;;;28.60;22.40;;;18.40;99.90;;;;;;4973761;28;20047;-69
2023/05/07 10:38:25;;;;;;;28.73;21.25;;;18.40;99.90;;;;;;4973711;28;20061;-69
2023/05/07 10:40:51;;;;;;;29.63;21.42;;;18.30;99.90;;;;;;4973573;28;20118;-69
2023/05/07 10:43:17;;;;;;;27.13;20.75;;;18.60;99.90;;;;;;4973717;28;20060;-69
2023/05/07 10:45:42;;;;;;;25.20;20.33;;;18.50;99.90;;;;;;4973710;28;20571;-69
2023/05/07 10:48:08;;;;;;;27.60;20.50;;;18.40;99.90;;;;;;4957450;28;20042;-69
2023/05/07 10:50:34;;;;;;;29.27;22.00;;;18.30;99.90;;;;;;4973337;28;20038;-69
2023/05/07 10:53:18;;;;;;;26.30;21.60;;;18.60;99.90;;;;;;4974949;28;20042;-69
2023/05/07 10:55:48;;;;;;;24.85;19.92;;;18.80;99.90;;;;;;4973559;28;20349;-69
2023/05/07 10:58:27;;;;;;;25.60;20.55;;;18.90;99.90;;;;;;4973341;28;20086;-69
2023/05/07 11:01:03;;;;;;;25.48;20.42;;;18.90;99.90;;;;;;4973080;28;20042;-69
2023/05/07 11:03:29;;;;;;;25.20;19.67;;;;;;;;;;4973412;28;20117;-69
2023/05/07 11:06:10;;;;;;;27.73;20.92;;;18.60;99.90;;;;;;4957404;28;20039;-69
2023/05/07 11:08:52;;;;;;;25.60;20.73;;;18.70;99.90;;;;;;4957075;28;20054;-69
2023/05/07 11:11:19;;;;;;;23.80;19.58;;;18.80;99.90;;;;;;4973112;28;20453;-69
2023/05/07 11:13:46;;;;;;;25.20;20.33;;;18.80;99.90;;;;;;4973156;28;20133;-69
2023/05/07 11:16:19;;;;;;;25.63;20.00;;;19.00;99.90;;;;;;4973314;28;20080;-69
2023/05/07 11:18:49;;;;;;;26.60;21.20;;;19.10;99.90;;;;;;4972762;28;20064;-69
2023/05/07 11:21:35;;;;;;;26.98;21.75;;;19.00;99.90;;;;;;4972871;28;20050;-69
2023/05/07 11:24:02;;;;;;;27.15;19.67;;;19.00;99.90;;;;;;4973263;28;20102;-69
2023/05/07 11:26:30;;;;;;;25.95;19.35;;;19.00;99.90;;;;;;4957013;28;20092;-69
2023/05/07 11:28:57;;;;;;;25.58;19.38;;;20.20;99.90;;;;;;4972802;28;20046;-69
2023/05/07 11:31:28;;;;;;;25.67;19.45;;;19.40;99.90;;;;;;4972462;28;20038;-69
2023/05/07 11:33:55;;;;;;;23.15;18.08;;;19.30;99.90;;;;;;4972111;28;20117;-69
2023/05/07 11:36:23;;;;;;;22.73;18.05;;;19.40;99.90;;;;;;4972663;28;20046;-69
2023/05/07 11:38:48;;;;;;;24.25;19.02;;;19.30;99.90;;;;;;4972606;28;20051;-69
2023/05/07 11:41:14;;;;;;;22.85;17.90;;;;;;;;;;4972419;28;20129;-69
2023/05/07 11:43:55;;;;;;;21.48;17.25;;;19.50;99.90;;;;;;4972568;28;20547;-69
2023/05/07 11:46:21;;;;;;;20.23;17.42;;;19.60;99.90;;;;;;4972477;28;20555;-69
2023/05/07 11:48:47;;;;;;;25.15;18.92;;;19.90;99.90;;;;;;4972670;28;20046;-70
2023/05/07 11:51:18;;;;;;;23.30;17.38;;;19.90;99.90;;;;;;4972186;28;20097;-69
2023/05/07 11:53:44;;;;;;;23.17;18.15;;;21.10;99.90;;;;;;4972698;28;20043;-69
2023/05/07 11:56:12;;;;;;;21.08;17.10;;;20.10;99.90;;;;;;4972637;28;20038;-69
2023/05/07 11:58:38;;;;;;;20.95;17.80;;;20.20;99.90;;;;;;4972393;28;20046;-69
2023/05/07 12:01:06;;;;;;;20.98;16.80;;;20.00;99.90;;;;;;4971912;28;20047;-69
2023/05/07 12:03:32;;;;;;;20.58;18.15;;;20.20;99.90;;;;;;4972479;28;20078;-69
2023/05/07 12:06:00;;;;;;;20.77;17.88;;;20.00;99.90;;;;;;4972141;28;20508;-69
2023/05/07 12:08:25;;;;;;;21.25;17.23;;;20.20;99.90;;;;;;4972400;28;20408;-69
2023/05/07 12:10:51;;;;;;;19.00;16.23;;;20.30;99.90;;;;;;4971862;28;20035;-70
2023/05/07 12:13:25;;;;;;;23.60;17.70;;;21.50;99.90;;;;;;4956225;28;20449;-70
2023/05/07 12:15:52;;;;;;;19.55;16.63;;;20.40;99.90;;;;;;4955880;28;20051;-70
2023/05/07 12:18:18;;;;;;;22.33;17.00;;;20.70;99.90;;;;;;4972238;28;20046;-70
2023/05/07 12:20:44;;;;;;;18.98;16.20;;;21.30;99.90;;;;;;4956109;28;20115;-70
2023/05/07 12:23:10;;;;;;;20.13;15.15;;;21.10;99.90;;;;;;4956160;28;20066;-69
2023/05/07 12:25:37;;;;;;;17.30;14.57;;;20.90;99.90;;;;;;4972155;28;20089;-69
2023/05/07 12:28:04;;;;;;;20.90;16.52;;;21.00;99.90;;;;;;4972029;28;20042;-69
2023/05/07 12:30:38;;;;;;;18.42;15.00;;;21.40;99.90;;;;;;4990106;23;20054;-70
2023/05/07 12:33:03;;;;;;;19.15;15.52;;;21.30;99.90;;;;;;4991187;28;20088;-70
2023/05/07 12:35:30;;;;;;;17.45;14.18;;;21.80;99.90;;;;;;4975043;28;20035;-70
2023/05/07 12:37:59;;;;;;;19.33;15.23;;;21.60;99.90;;;;;;4990988;28;20056;-70
2023/05/07 12:40:35;;;;;;;17.05;14.73;;;21.70;99.90;;;;;;4990841;28;20041;-71
2023/05/07 12:43:01;;;;;;;16.92;14.75;;;21.90;99.90;;;;;;4990985;28;20042;-71
2023/05/07 12:45:26;;;;;;;17.48;14.77;;;20.90;99.90;;;;;;4990873;28;20390;-70
2023/05/07 12:47:52;;;;;;;17.02;14.80;;;21.10;99.90;;;;;;4990987;28;20049;-70
2023/05/07 12:50:18;;;;;;;16.88;14.90;;;21.00;99.90;;;;;;4990654;28;20196;-70
2023/05/07 12:52:52;;;;;;;17.88;15.40;;;21.30;99.90;;;;;;4990895;28;20050;-70
2023/05/07 12:55:18;;;;;;;17.45;14.65;;;21.00;99.90;;;;;;4990846;28;20424;-70
2023/05/07 12:57:51;;;;;;;16.58;14.77;;;21.20;99.90;;;;;;4990754;28;20038;-70
2023/05/07 13:00:17;;;;;;;17.42;13.73;;;20.90;99.90;;;;;;4974329;28;20407;-70
2023/05/07 13:02:47;;;;;;;19.42;15.52;;;21.10;99.90;;;;;;4974923;28;20049;-70